createdAt,value
2023-04-20T00:01:39.246Z,88.10
2023-04-20T00:04:14.116Z,88.10
2023-04-20T00:06:44.388Z,88.00
2023-04-20T00:11:57.885Z,88.10
2023-04-20T00:14:31.247Z,87.90
2023-04-20T00:17:04.515Z,87.70
2023-04-20T00:19:33.534Z,87.70
2023-04-20T00:22:03.807Z,87.80
2023-04-20T00:24:36.679Z,88.00
2023-04-20T00:27:04.405Z,88.20
2023-04-20T00:29:32.014Z,88.10
2023-04-20T00:32:00.127Z,88.20
2023-04-20T00:34:38.562Z,88.30
2023-04-20T00:37:09.736Z,88.20
2023-04-20T00:39:41.356Z,88.30
2023-04-20T00:42:14.745Z,88.20
2023-04-20T00:44:45.587Z,88.30
2023-04-20T00:47:13.398Z,88.20
2023-04-20T00:49:42.537Z,87.60
2023-04-20T00:52:15.013Z,88.00
2023-04-20T00:54:50.767Z,88.20
2023-04-20T00:57:25.913Z,88.30
2023-04-20T00:59:59.631Z,88.20
2023-04-20T01:02:28.018Z,88.20
2023-04-20T01:04:58.942Z,87.80
2023-04-20T01:07:28.860Z,88.10
2023-04-20T01:10:05.530Z,88.00
2023-04-20T01:12:33.070Z,88.00
2023-04-20T01:15:00.994Z,88.00
2023-04-20T01:17:29.047Z,87.80
2023-04-20T01:20:08.072Z,87.60
2023-04-20T01:22:53.933Z,87.80
2023-04-20T01:25:26.086Z,87.80
2023-04-20T01:27:53.998Z,88.00
2023-04-20T01:30:23.299Z,88.10
2023-04-20T01:32:53.649Z,88.10
2023-04-20T01:35:32.847Z,88.10
2023-04-20T01:38:05.385Z,88.10
2023-04-20T01:40:53.450Z,88.30
2023-04-20T01:43:24.858Z,88.50
2023-04-20T01:45:55.266Z,88.30
2023-04-20T01:48:22.937Z,88.40
2023-04-20T01:50:53.877Z,88.30
2023-04-20T01:53:21.513Z,88.40
2023-04-20T01:55:50.441Z,88.20
2023-04-20T01:58:18.138Z,87.80
2023-04-20T02:00:48.833Z,88.20
2023-04-20T02:03:16.704Z,88.00
2023-04-20T02:05:48.951Z,88.00
2023-04-20T02:08:17.115Z,88.20
2023-04-20T02:10:45.118Z,88.20
2023-04-20T02:13:13.464Z,87.90
2023-04-20T02:15:43.550Z,88.10
2023-04-20T02:18:21.452Z,88.10
2023-04-20T02:20:52.018Z,88.20
2023-04-20T02:23:19.954Z,88.20
2023-04-20T02:25:53.165Z,88.00
2023-04-20T02:28:20.694Z,88.10
2023-04-20T02:30:51.499Z,88.20
2023-04-20T02:33:22.387Z,88.30
2023-04-20T02:35:54.258Z,88.20
2023-04-20T02:38:21.879Z,88.50
2023-04-20T02:41:07.420Z,88.10
2023-04-20T02:43:41.614Z,88.40
2023-04-20T02:46:17.209Z,88.30
2023-04-20T02:48:44.921Z,88.10
2023-04-20T02:51:12.668Z,88.10
2023-04-20T02:53:47.692Z,87.80
2023-04-20T02:56:32.366Z,88.00
2023-04-20T02:59:04.932Z,87.80
2023-04-20T03:01:48.012Z,87.90
2023-04-20T03:04:19.706Z,87.70
2023-04-20T03:06:58.375Z,87.80
2023-04-20T03:09:41.406Z,87.80
2023-04-20T03:12:31.942Z,87.90
2023-04-20T03:15:22.469Z,88.10
2023-04-20T03:18:15.269Z,88.30
2023-04-20T03:20:43.614Z,88.40
2023-04-20T03:23:11.528Z,88.50
2023-04-20T03:25:43.038Z,88.30
2023-04-20T03:28:25.564Z,88.40
2023-04-20T03:30:54.186Z,88.40
2023-04-20T03:33:24.180Z,88.40
2023-04-20T03:35:52.646Z,88.30
2023-04-20T03:38:22.372Z,88.30
2023-04-20T03:40:53.932Z,88.40
2023-04-20T03:43:30.485Z,88.40
2023-04-20T03:45:59.009Z,88.30
2023-04-20T03:48:30.100Z,88.70
2023-04-20T03:51:02.624Z,88.50
2023-04-20T03:53:32.960Z,88.60
2023-04-20T03:56:02.042Z,88.60
2023-04-20T03:58:31.426Z,88.90
2023-04-20T04:01:08.714Z,88.70
2023-04-20T04:03:40.384Z,88.70
2023-04-20T04:06:11.050Z,88.70
2023-04-20T04:08:40.807Z,88.70
2023-04-20T04:11:11.071Z,89.00
2023-04-20T04:13:41.080Z,89.00
2023-04-20T04:16:10.806Z,89.00
2023-04-20T04:18:44.370Z,89.10
2023-04-20T04:21:17.036Z,89.10
2023-04-20T04:23:51.588Z,89.20
2023-04-20T04:26:34.011Z,89.10
2023-04-20T04:29:02.100Z,89.30
2023-04-20T04:31:29.844Z,89.00
2023-04-20T04:34:09.043Z,89.10
2023-04-20T04:36:45.948Z,88.80
2023-04-20T04:39:17.020Z,88.70
2023-04-20T04:41:53.217Z,88.70
2023-04-20T04:44:31.524Z,88.90
2023-04-20T04:47:02.619Z,88.90
2023-04-20T04:49:31.221Z,88.80
2023-04-20T04:52:01.547Z,88.70
2023-04-20T04:54:31.530Z,88.40
2023-04-20T04:56:59.005Z,88.30
2023-04-20T04:59:26.454Z,88.20
2023-04-20T05:01:56.199Z,88.20
2023-04-20T05:04:27.943Z,88.10
2023-04-20T05:07:00.134Z,88.10
2023-04-20T05:09:33.656Z,88.10
2023-04-20T05:12:15.060Z,87.80
2023-04-20T05:14:42.829Z,87.50
2023-04-20T05:17:10.916Z,87.40
2023-04-20T05:19:49.024Z,87.40
2023-04-20T05:22:24.041Z,87.40
2023-04-20T05:24:58.079Z,87.40
2023-04-20T05:27:28.485Z,87.40
2023-04-20T05:30:18.948Z,87.30
2023-04-20T05:32:57.163Z,87.20
2023-04-20T05:35:26.530Z,87.20
2023-04-20T05:37:54.194Z,87.10
2023-04-20T05:40:24.872Z,86.90
2023-04-20T05:42:55.222Z,86.70
2023-04-20T05:45:25.756Z,86.80
2023-04-20T05:48:00.281Z,86.40
2023-04-20T05:50:34.279Z,86.40
2023-04-20T05:53:01.972Z,86.40
2023-04-20T05:55:37.924Z,86.60
2023-04-20T05:58:06.082Z,86.00
2023-04-20T06:00:39.789Z,85.70
2023-04-20T06:03:15.497Z,85.50
2023-04-20T06:05:43.183Z,85.10
2023-04-20T06:08:13.240Z,85.60
2023-04-20T06:10:40.792Z,85.30
2023-04-20T06:13:17.085Z,84.70
2023-04-20T06:15:46.824Z,84.60
2023-04-20T06:18:17.342Z,84.60
2023-04-20T06:20:52.866Z,84.70
2023-04-20T06:23:25.035Z,84.80
2023-04-20T06:25:59.447Z,84.90
2023-04-20T06:28:32.782Z,85.20
2023-04-20T06:31:00.327Z,85.00
2023-04-20T06:33:28.003Z,85.20
2023-04-20T06:36:09.142Z,84.70
2023-04-20T06:38:41.903Z,83.90
2023-04-20T06:41:16.632Z,83.90
2023-04-20T06:43:48.167Z,82.80
2023-04-20T06:46:15.817Z,82.40
2023-04-20T06:48:44.960Z,82.40
2023-04-20T06:51:17.759Z,81.30
2023-04-20T06:53:47.440Z,81.40
2023-04-20T06:56:15.028Z,81.10
2023-04-20T06:58:45.200Z,80.70
2023-04-20T07:01:15.633Z,80.80
2023-04-20T07:03:47.238Z,79.70
2023-04-20T07:06:16.995Z,79.20
2023-04-20T07:08:45.093Z,78.90
2023-04-20T07:11:12.743Z,79.10
2023-04-20T07:13:43.403Z,78.80
2023-04-20T07:16:16.881Z,78.20
2023-04-20T07:18:49.546Z,77.80
2023-04-20T07:21:28.199Z,77.20
2023-04-20T07:23:58.634Z,75.50
2023-04-20T07:26:32.233Z,75.60
2023-04-20T07:29:02.680Z,74.20
2023-04-20T07:31:31.523Z,73.50
2023-04-20T07:34:02.602Z,72.90
2023-04-20T07:36:39.497Z,72.20
2023-04-20T07:39:10.274Z,71.00
2023-04-20T07:41:37.664Z,71.00
2023-04-20T07:44:08.631Z,71.30
2023-04-20T07:46:36.390Z,70.60
2023-04-20T07:49:04.312Z,70.80
2023-04-20T07:51:43.262Z,71.50
2023-04-20T07:54:16.504Z,69.10
2023-04-20T07:56:44.050Z,70.10
2023-04-20T07:59:15.419Z,70.40
2023-04-20T08:01:45.714Z,70.10
2023-04-20T08:04:13.556Z,70.60
2023-04-20T08:06:43.781Z,69.30
2023-04-20T08:09:13.088Z,69.20
2023-04-20T08:11:41.650Z,68.90
2023-04-20T08:14:09.867Z,68.30
2023-04-20T08:16:37.925Z,67.50
2023-04-20T08:21:41.213Z,68.80
2023-04-20T08:24:10.541Z,68.80
2023-04-20T08:26:39.920Z,68.40
2023-04-20T08:29:08.014Z,68.00
2023-04-20T08:31:39.103Z,68.40
2023-04-20T08:34:09.891Z,67.90
2023-04-20T08:36:37.533Z,67.60
2023-04-20T08:39:13.904Z,65.50
2023-04-20T08:41:44.288Z,64.70
2023-04-20T08:44:17.217Z,64.20
2023-04-20T08:46:50.076Z,65.10
2023-04-20T08:49:21.859Z,64.70
2023-04-20T08:51:49.736Z,66.40
2023-04-20T08:54:26.820Z,67.00
2023-04-20T08:56:57.797Z,66.10
2023-04-20T08:59:29.816Z,66.10
2023-04-20T09:02:16.676Z,66.30
2023-04-20T09:04:50.152Z,67.20
2023-04-20T09:07:21.623Z,66.30
2023-04-20T09:09:57.052Z,67.50
2023-04-20T09:12:43.872Z,66.80
2023-04-20T09:15:23.787Z,65.60
2023-04-20T09:17:54.501Z,65.20
2023-04-20T09:20:51.407Z,64.00
2023-04-20T09:23:22.120Z,64.40
2023-04-20T09:25:55.926Z,63.80
2023-04-20T09:28:35.657Z,64.80
2023-04-20T09:31:08.999Z,64.10
2023-04-20T09:33:39.991Z,64.10
2023-04-20T09:36:13.741Z,64.40
2023-04-20T09:38:43.004Z,63.00
2023-04-20T09:41:13.387Z,63.60
2023-04-20T09:43:48.470Z,64.90
2023-04-20T09:46:27.778Z,67.30
2023-04-20T09:48:56.203Z,66.70
2023-04-20T09:51:28.261Z,63.80
2023-04-20T09:53:58.171Z,60.50
2023-04-20T09:56:28.190Z,60.20
2023-04-20T09:58:59.333Z,59.80
2023-04-20T10:01:33.943Z,60.30
2023-04-20T10:04:03.991Z,60.40
2023-04-20T10:06:39.437Z,61.90
2023-04-20T10:09:23.745Z,62.10
2023-04-20T10:12:05.334Z,60.20
2023-04-20T10:14:45.680Z,59.30
2023-04-20T10:17:13.735Z,59.50
2023-04-20T10:19:47.832Z,58.30
2023-04-20T10:22:35.567Z,57.80
2023-04-20T10:25:20.339Z,58.10
2023-04-20T10:27:56.887Z,58.50
2023-04-20T10:30:27.311Z,59.40
2023-04-20T10:33:20.810Z,58.90
2023-04-20T10:35:57.259Z,56.80
2023-04-20T10:38:33.337Z,56.90
2023-04-20T10:41:07.980Z,57.60
2023-04-20T10:43:36.725Z,57.50
2023-04-20T10:46:17.842Z,56.30
2023-04-20T10:49:02.860Z,56.20
2023-04-20T10:51:36.931Z,57.40
2023-04-20T10:54:08.652Z,55.70
2023-04-20T10:56:44.370Z,55.10
2023-04-20T10:59:25.320Z,56.10
2023-04-20T11:01:54.775Z,54.60
2023-04-20T11:04:38.860Z,54.10
2023-04-20T11:07:08.908Z,53.80
2023-04-20T11:09:46.392Z,51.90
2023-04-20T11:12:16.141Z,54.00
2023-04-20T11:14:59.471Z,54.00
2023-04-20T11:17:35.069Z,53.20
2023-04-20T11:20:17.213Z,53.80
2023-04-20T11:22:59.141Z,54.30
2023-04-20T11:25:27.997Z,53.50
2023-04-20T11:28:10.954Z,56.10
2023-04-20T11:30:42.275Z,56.50
2023-04-20T11:33:12.091Z,54.00
2023-04-20T11:35:49.792Z,54.50
2023-04-20T11:38:33.150Z,53.00
2023-04-20T11:41:04.884Z,54.70
2023-04-20T11:43:39.896Z,53.50
2023-04-20T11:46:15.705Z,52.70
2023-04-20T11:48:43.665Z,53.60
2023-04-20T11:51:13.751Z,53.90
2023-04-20T11:53:45.273Z,55.20
2023-04-20T11:56:18.654Z,55.70
2023-04-20T11:58:48.814Z,57.80
2023-04-20T12:01:22.240Z,58.20
2023-04-20T12:03:58.257Z,58.60
2023-04-20T12:06:28.677Z,59.70
2023-04-20T12:08:57.617Z,60.10
2023-04-20T12:11:29.955Z,62.30
2023-04-20T12:13:58.080Z,64.30
2023-04-20T12:16:26.566Z,66.10
2023-04-20T12:18:55.532Z,65.90
2023-04-20T12:21:23.458Z,66.90
2023-04-20T12:23:51.854Z,68.40
2023-04-20T12:26:36.903Z,68.60
2023-04-20T12:29:09.438Z,69.90
2023-04-20T12:31:37.171Z,71.30
2023-04-20T12:34:04.807Z,71.30
2023-04-20T12:36:32.636Z,70.90
2023-04-20T12:38:59.869Z,70.70
2023-04-20T12:41:27.269Z,70.50
2023-04-20T12:43:54.471Z,70.90
2023-04-20T12:46:21.729Z,71.60
2023-04-20T12:48:48.936Z,71.20
2023-04-20T12:51:16.465Z,71.50
2023-04-20T12:53:43.722Z,72.60
2023-04-20T12:56:11.162Z,72.10
2023-04-20T12:58:38.370Z,72.40
2023-04-20T13:01:05.941Z,73.10
2023-04-20T13:03:33.333Z,72.80
2023-04-20T13:06:00.734Z,73.30
2023-04-20T13:08:27.950Z,73.40
2023-04-20T13:10:55.232Z,72.90
2023-04-20T13:13:22.466Z,71.20
2023-04-20T13:15:49.756Z,71.20
2023-04-20T13:18:17.033Z,71.80
2023-04-20T13:20:50.356Z,71.80
2023-04-20T13:23:17.993Z,71.90
2023-04-20T13:25:45.337Z,71.80
2023-04-20T13:28:14.519Z,71.70
2023-04-20T13:30:42.160Z,71.90
2023-04-20T13:33:09.720Z,71.70
2023-04-20T13:35:37.356Z,71.50
2023-04-20T13:38:04.932Z,72.20
2023-04-20T13:40:32.486Z,72.50
2023-04-20T13:42:59.753Z,72.70
2023-04-20T13:45:28.008Z,73.20
2023-04-20T13:47:55.568Z,72.80
2023-04-20T13:50:22.933Z,72.40
2023-04-20T13:52:50.377Z,73.10
2023-04-20T13:55:20.293Z,74.10
2023-04-20T13:57:47.805Z,73.70
2023-04-20T14:00:15.673Z,74.10
2023-04-20T14:02:43.220Z,74.00
2023-04-20T14:05:11.358Z,73.50
2023-04-20T14:07:39.070Z,73.80
2023-04-20T14:10:07.185Z,72.50
2023-04-20T14:12:35.015Z,73.00
2023-04-20T14:15:02.594Z,73.90
2023-04-20T14:17:30.080Z,73.40
2023-04-20T14:19:57.434Z,72.40
2023-04-20T14:22:24.955Z,72.20
2023-04-20T14:24:52.363Z,71.40
2023-04-20T14:27:19.664Z,71.70
2023-04-20T14:29:47.018Z,70.50
2023-04-20T14:32:14.286Z,70.40
2023-04-20T14:34:41.483Z,71.00
2023-04-20T14:37:10.024Z,70.20
2023-04-20T14:39:37.338Z,69.70
2023-04-20T14:42:04.589Z,69.60
2023-04-20T14:44:31.824Z,71.00
2023-04-20T14:46:59.302Z,71.60
2023-04-20T14:49:26.959Z,71.80
2023-04-20T14:51:54.140Z,72.70
2023-04-20T14:54:21.422Z,73.00
2023-04-20T14:56:48.746Z,73.20
2023-04-20T14:59:16.376Z,73.70
2023-04-20T15:01:58.658Z,73.90
2023-04-20T15:04:33.275Z,74.30
2023-04-20T15:07:00.978Z,74.90
2023-04-20T15:09:28.777Z,75.20
2023-04-20T15:11:56.864Z,75.40
2023-04-20T15:14:24.862Z,75.30
2023-04-20T15:16:52.858Z,75.20
2023-04-20T15:19:21.251Z,75.10
2023-04-20T15:21:48.920Z,75.80
2023-04-20T15:24:16.938Z,76.30
2023-04-20T15:26:46.035Z,75.70
2023-04-20T15:29:16.941Z,75.80
2023-04-20T15:31:45.963Z,75.70
2023-04-20T15:34:15.403Z,75.70
2023-04-20T15:36:43.534Z,75.60
2023-04-20T15:39:10.855Z,75.10
2023-04-20T15:41:38.034Z,75.10
2023-04-20T15:44:05.652Z,75.10
2023-04-20T15:46:33.101Z,74.70
2023-04-20T15:49:00.883Z,74.30
2023-04-20T15:51:28.197Z,73.80
2023-04-20T15:53:55.788Z,73.90
2023-04-20T15:56:23.263Z,72.70
2023-04-20T15:58:51.434Z,72.30
2023-04-20T16:01:20.068Z,72.10
2023-04-20T16:03:49.798Z,71.80
2023-04-20T16:06:22.815Z,72.20
2023-04-20T16:08:53.862Z,72.10
2023-04-20T16:11:21.924Z,72.40
2023-04-20T16:13:49.638Z,72.90
2023-04-20T16:16:16.932Z,73.50
2023-04-20T16:18:50.917Z,74.30
2023-04-20T16:21:18.699Z,74.30
2023-04-20T16:23:46.142Z,74.50
2023-04-20T16:26:13.388Z,73.90
2023-04-20T16:28:40.999Z,73.40
2023-04-20T16:31:08.344Z,73.00
2023-04-20T16:33:37.501Z,73.10
2023-04-20T16:36:05.205Z,72.80
2023-04-20T16:38:32.514Z,72.30
2023-04-20T16:40:59.751Z,72.50
2023-04-20T16:43:27.053Z,72.50
2023-04-20T16:45:54.495Z,72.70
2023-04-20T16:48:21.869Z,73.10
2023-04-20T16:50:49.363Z,73.10
2023-04-20T16:53:17.058Z,72.40
2023-04-20T16:55:44.289Z,72.10
2023-04-20T16:58:11.580Z,71.00
2023-04-20T17:00:39.016Z,69.00
2023-04-20T17:03:08.993Z,66.80
2023-04-20T17:05:41.872Z,65.70
2023-04-20T17:08:09.650Z,65.20
2023-04-20T17:10:38.389Z,65.00
2023-04-20T17:13:05.683Z,66.20
2023-04-20T17:15:33.024Z,66.60
2023-04-20T17:18:00.462Z,67.60
2023-04-20T17:20:28.276Z,68.60
2023-04-20T17:22:55.727Z,69.70
2023-04-20T17:25:23.173Z,69.80
2023-04-20T17:27:51.178Z,70.70
2023-04-20T17:30:18.877Z,71.50
2023-04-20T17:32:46.827Z,71.90
2023-04-20T17:35:14.210Z,72.40
2023-04-20T17:37:42.262Z,73.10
2023-04-20T17:40:11.018Z,73.70
2023-04-20T17:43:04.058Z,74.30
2023-04-20T17:45:32.418Z,75.00
2023-04-20T17:47:59.761Z,75.40
2023-04-20T17:50:28.186Z,75.60
2023-04-20T17:52:55.467Z,75.70
2023-04-20T17:55:23.056Z,76.00
2023-04-20T17:57:50.892Z,76.30
2023-04-20T18:00:20.506Z,76.60
2023-04-20T18:02:47.910Z,76.90
2023-04-20T18:05:15.543Z,77.00
2023-04-20T18:07:43.231Z,77.40
2023-04-20T18:10:16.554Z,77.80
2023-04-20T18:12:45.038Z,78.30
2023-04-20T18:15:12.941Z,78.60
2023-04-20T18:17:40.314Z,78.90
2023-04-20T18:20:17.076Z,79.20
2023-04-20T18:22:44.928Z,79.50
2023-04-20T18:25:15.479Z,79.60
2023-04-20T18:27:42.974Z,79.90
2023-04-20T18:30:18.700Z,80.20
2023-04-20T18:32:46.237Z,80.50
2023-04-20T18:35:29.074Z,81.10
2023-04-20T18:37:57.643Z,81.20
2023-04-20T18:40:24.900Z,81.60
2023-04-20T18:42:52.268Z,82.00
2023-04-20T18:45:22.376Z,82.40
2023-04-20T18:47:50.308Z,82.40
2023-04-20T18:50:17.744Z,82.60
2023-04-20T18:52:45.609Z,82.70
2023-04-20T18:55:15.022Z,82.90
2023-04-20T18:57:43.807Z,82.90
2023-04-20T19:00:13.480Z,82.80
2023-04-20T19:02:41.309Z,82.50
2023-04-20T19:05:09.456Z,82.30
2023-04-20T19:07:40.095Z,82.40
2023-04-20T19:10:09.214Z,82.60
2023-04-20T19:13:04.228Z,82.90
2023-04-20T19:15:36.316Z,83.30
2023-04-20T19:18:05.948Z,83.20
2023-04-20T19:20:37.181Z,83.00
2023-04-20T19:23:04.810Z,82.80
2023-04-20T19:25:32.394Z,82.80
2023-04-20T19:28:00.888Z,83.50
2023-04-20T19:30:28.401Z,84.00
2023-04-20T19:32:57.710Z,84.50
2023-04-20T19:35:25.041Z,85.20
2023-04-20T19:37:52.424Z,85.20
2023-04-20T19:40:22.259Z,85.20
2023-04-20T19:42:50.751Z,85.20
2023-04-20T19:45:18.370Z,85.10
2023-04-20T19:47:45.643Z,85.10
2023-04-20T19:50:14.048Z,84.90
2023-04-20T19:52:41.563Z,85.20
2023-04-20T19:55:09.326Z,85.20
2023-04-20T19:57:36.523Z,84.90
2023-04-20T20:00:05.203Z,84.90
2023-04-20T20:02:40.431Z,84.90
2023-04-20T20:05:09.222Z,85.10
2023-04-20T20:07:36.885Z,85.50
2023-04-20T20:10:04.714Z,85.30
2023-04-20T20:12:32.072Z,85.10
2023-04-20T20:14:59.927Z,85.30
2023-04-20T20:17:27.321Z,85.60
2023-04-20T20:19:55.909Z,85.40
2023-04-20T20:22:23.471Z,85.40
2023-04-20T20:24:54.342Z,85.80
2023-04-20T20:27:21.689Z,85.90
2023-04-20T20:29:49.020Z,85.70
2023-04-20T20:32:16.261Z,85.90
2023-04-20T20:34:43.547Z,85.90
2023-04-20T20:37:10.736Z,85.70
2023-04-20T20:39:40.036Z,85.70
2023-04-20T20:42:09.200Z,85.70
2023-04-20T20:44:38.878Z,85.40
2023-04-20T20:47:06.599Z,85.30
2023-04-20T20:49:33.966Z,85.40
2023-04-20T20:52:02.323Z,85.60
2023-04-20T20:54:29.590Z,85.40
2023-04-20T20:56:58.396Z,85.20
2023-04-20T20:59:26.353Z,85.30
2023-04-20T21:01:55.023Z,85.20
2023-04-20T21:04:22.842Z,85.30
2023-04-20T21:06:50.129Z,85.30
2023-04-20T21:09:17.594Z,85.60
2023-04-20T21:11:45.549Z,85.70
2023-04-20T21:14:13.623Z,85.60
2023-04-20T21:16:41.090Z,86.00
2023-04-20T21:19:08.372Z,86.00
2023-04-20T21:21:35.560Z,86.40
2023-04-20T21:24:02.905Z,86.30
2023-04-20T21:26:35.595Z,86.10
2023-04-20T21:29:03.864Z,86.40
2023-04-20T21:31:32.396Z,86.30
2023-04-20T21:34:00.435Z,86.10
2023-04-20T21:36:27.867Z,85.80
2023-04-20T21:38:55.176Z,85.80
2023-04-20T21:41:22.368Z,85.60
2023-04-20T21:43:54.970Z,85.50
2023-04-20T21:46:22.570Z,85.40
2023-04-20T21:48:51.268Z,85.90
2023-04-20T21:51:18.920Z,86.70
2023-04-20T21:53:46.262Z,87.50
2023-04-20T21:56:14.835Z,87.70
2023-04-20T21:58:42.178Z,88.10
2023-04-20T22:01:09.416Z,88.30
2023-04-20T22:03:37.917Z,88.50
2023-04-20T22:06:06.401Z,88.60
2023-04-20T22:08:33.706Z,88.60
2023-04-20T22:11:00.924Z,88.50
2023-04-20T22:13:28.173Z,88.50
2023-04-20T22:15:55.525Z,88.40
2023-04-20T22:18:22.918Z,88.20
2023-04-20T22:20:51.345Z,88.30
2023-04-20T22:23:18.589Z,88.20
2023-04-20T22:25:45.872Z,88.50
2023-04-20T22:28:13.277Z,88.50
2023-04-20T22:30:40.515Z,88.50
2023-04-20T22:33:07.903Z,88.50
2023-04-20T22:35:35.628Z,88.50
2023-04-20T22:38:02.871Z,88.40
2023-04-20T22:40:30.358Z,88.40
2023-04-20T22:42:57.581Z,88.40
2023-04-20T22:45:24.876Z,88.40
2023-04-20T22:47:52.216Z,88.30
2023-04-20T22:50:19.558Z,88.40
2023-04-20T22:52:46.952Z,88.40
2023-04-20T22:55:14.342Z,88.40
2023-04-20T22:57:41.594Z,88.30
2023-04-20T23:00:10.839Z,88.10
2023-04-20T23:02:38.303Z,88.10
2023-04-20T23:05:06.227Z,88.10
2023-04-20T23:07:33.677Z,88.00
2023-04-20T23:10:01.375Z,88.10
2023-04-20T23:12:32.374Z,88.10
2023-04-20T23:15:01.317Z,88.30
2023-04-20T23:17:29.006Z,88.20
2023-04-20T23:19:56.569Z,88.00
2023-04-20T23:22:24.325Z,88.00
2023-04-20T23:24:51.542Z,87.90
2023-04-20T23:27:18.740Z,88.10
2023-04-20T23:29:45.963Z,88.10
2023-04-20T23:32:13.304Z,88.00
2023-04-20T23:34:40.578Z,87.90
2023-04-20T23:37:07.789Z,88.00
2023-04-20T23:39:38.234Z,88.00
2023-04-20T23:42:05.882Z,88.00
2023-04-20T23:44:33.329Z,88.20
2023-04-20T23:47:00.727Z,88.20
2023-04-20T23:49:27.975Z,88.30
2023-04-20T23:51:55.197Z,88.20
2023-04-20T23:54:22.378Z,88.40
2023-04-20T23:56:49.629Z,88.40
2023-04-20T23:59:17.004Z,88.40
